createdAt,value
2019-01-19T00:00:56.600Z,26.10
2019-01-19T00:01:56.570Z,22.00
2019-01-19T00:02:56.558Z,20.90
2019-01-19T00:03:56.584Z,23.80
2019-01-19T00:04:56.539Z,21.40
2019-01-19T00:05:56.527Z,22.60
2019-01-19T00:06:56.512Z,25.40
2019-01-19T00:07:56.506Z,19.90
2019-01-19T00:08:56.492Z,23.70
2019-01-19T00:09:56.506Z,22.80
2019-01-19T00:10:56.477Z,20.90
2019-01-19T00:11:56.477Z,21.90
2019-01-19T00:12:56.489Z,23.20
2019-01-19T00:13:56.461Z,24.10
2019-01-19T00:14:56.458Z,22.20
2019-01-19T00:15:56.418Z,23.10
2019-01-19T00:16:56.426Z,21.20
2019-01-19T00:17:56.396Z,25.00
2019-01-19T00:18:56.393Z,22.10
2019-01-19T00:19:56.424Z,20.20
2019-01-19T00:20:56.383Z,24.10
2019-01-19T00:21:56.359Z,22.80
2019-01-19T00:22:56.350Z,23.10
2019-01-19T00:23:56.332Z,21.40
2019-01-19T00:24:56.376Z,21.40
2019-01-19T00:25:56.315Z,24.10
2019-01-19T00:26:56.302Z,23.60
2019-01-19T00:27:56.320Z,23.70
2019-01-19T00:28:56.288Z,22.20
2019-01-19T00:29:56.289Z,22.70
2019-01-19T00:30:56.285Z,25.30
2019-01-19T00:31:56.251Z,19.60
2019-01-19T00:32:56.245Z,22.40
2019-01-19T00:33:56.247Z,21.90
2019-01-19T00:34:56.230Z,23.90
2019-01-19T00:35:56.237Z,23.30
2019-01-19T00:36:56.202Z,21.20
2019-01-19T00:37:56.189Z,24.80
2019-01-19T00:38:56.184Z,25.00
2019-01-19T00:39:56.168Z,22.80
2019-01-19T00:40:56.176Z,23.10
2019-01-19T00:41:56.156Z,22.40
2019-01-19T00:42:56.142Z,21.80
2019-01-19T00:43:56.126Z,24.00
2019-01-19T00:44:56.122Z,22.90
2019-01-19T00:45:56.123Z,21.80
2019-01-19T00:46:56.096Z,21.20
2019-01-19T00:47:56.088Z,20.50
2019-01-19T00:48:56.077Z,21.70
2019-01-19T00:49:56.065Z,20.60
2019-01-19T00:50:56.072Z,22.50
2019-01-19T00:51:56.055Z,20.70
2019-01-19T00:52:56.076Z,24.00
2019-01-19T00:53:56.052Z,22.40
2019-01-19T00:54:56.013Z,23.80
2019-01-19T00:55:56.025Z,19.30
2019-01-19T00:56:55.998Z,24.60
2019-01-19T00:57:55.984Z,23.40
2019-01-19T00:59:04.777Z,21.60
2019-01-19T00:59:55.965Z,22.30
2019-01-19T01:00:56.002Z,22.60
2019-01-19T01:01:55.950Z,22.20
2019-01-19T01:02:55.922Z,22.60
2019-01-19T01:03:55.918Z,21.30
2019-01-19T01:04:55.907Z,18.90
2019-01-19T01:05:55.902Z,21.70
2019-01-19T01:06:55.909Z,22.10
2019-01-19T01:07:55.902Z,21.20
2019-01-19T01:08:55.863Z,19.40
2019-01-19T01:09:55.888Z,23.20
2019-01-19T01:10:55.847Z,22.40
2019-01-19T01:11:55.884Z,19.80
2019-01-19T01:12:55.854Z,21.20
2019-01-19T01:13:55.821Z,20.30
2019-01-19T01:14:55.828Z,22.20
2019-01-19T01:15:55.834Z,18.40
2019-01-19T01:16:55.816Z,20.40
2019-01-19T01:17:55.777Z,21.70
2019-01-19T01:18:55.761Z,21.90
2019-01-19T01:19:55.743Z,20.20
2019-01-19T01:20:55.732Z,22.80
2019-01-19T01:21:55.746Z,22.20
2019-01-19T01:22:55.717Z,22.40
2019-01-19T01:23:55.714Z,20.90
2019-01-19T01:24:55.738Z,23.30
2019-01-19T01:25:55.682Z,20.00
2019-01-19T01:26:55.689Z,22.90
2019-01-19T01:27:55.669Z,20.10
2019-01-19T01:28:55.650Z,22.00
2019-01-19T01:29:55.645Z,20.60
2019-01-19T01:30:55.630Z,20.20
2019-01-19T01:31:55.638Z,22.50
2019-01-19T01:33:04.162Z,22.10
2019-01-19T01:33:55.597Z,19.90
2019-01-19T01:34:55.589Z,21.60
2019-01-19T01:35:55.608Z,21.40
2019-01-19T01:36:55.599Z,20.90
2019-01-19T01:37:55.563Z,19.60
2019-01-19T01:38:55.550Z,21.10
2019-01-19T01:39:55.539Z,19.10
2019-01-19T01:40:55.525Z,20.80
2019-01-19T01:41:55.533Z,21.00
2019-01-19T01:42:55.508Z,21.90
2019-01-19T01:43:55.504Z,20.10
2019-01-19T01:44:55.492Z,21.50
2019-01-19T01:45:55.483Z,23.20
2019-01-19T01:46:55.484Z,20.00
2019-01-19T01:47:55.458Z,17.80
2019-01-19T01:48:55.444Z,22.30
2019-01-19T01:49:55.434Z,18.80
2019-01-19T01:50:55.422Z,22.60
2019-01-19T01:51:55.435Z,22.30
2019-01-19T01:52:55.409Z,20.60
2019-01-19T01:53:55.390Z,20.20
2019-01-19T01:54:55.410Z,18.60
2019-01-19T01:55:55.387Z,22.30
2019-01-19T01:57:05.540Z,21.60
2019-01-19T01:58:02.894Z,21.00
2019-01-19T01:59:02.881Z,20.30
2019-01-19T02:00:02.867Z,22.60
2019-01-19T02:01:02.868Z,20.30
2019-01-19T02:02:02.868Z,18.90
2019-01-19T02:02:55.325Z,20.60
2019-01-19T02:03:55.284Z,18.90
2019-01-19T02:04:55.271Z,19.40
2019-01-19T02:05:55.269Z,20.70
2019-01-19T02:06:55.254Z,21.50
2019-01-19T02:07:55.267Z,20.80
2019-01-19T02:08:55.262Z,19.80
2019-01-19T02:09:55.221Z,20.40
2019-01-19T02:10:55.216Z,20.80
2019-01-19T02:11:55.205Z,18.40
2019-01-19T02:12:55.211Z,20.50
2019-01-19T02:13:55.181Z,19.50
2019-01-19T02:14:55.172Z,20.30
2019-01-19T02:15:55.163Z,20.30
2019-01-19T02:16:55.184Z,18.60
2019-01-19T02:17:55.193Z,19.40
2019-01-19T02:18:55.133Z,20.00
2019-01-19T02:19:55.135Z,18.00
2019-01-19T02:20:55.114Z,21.40
2019-01-19T02:21:55.212Z,20.90
2019-01-19T02:22:55.177Z,17.50
2019-01-19T02:23:55.127Z,19.70
2019-01-19T02:24:55.068Z,20.20
2019-01-19T02:25:55.056Z,19.30
2019-01-19T02:26:55.055Z,18.30
2019-01-19T02:27:55.039Z,21.40
2019-01-19T02:28:55.043Z,18.40
2019-01-19T02:29:55.025Z,19.30
2019-01-19T02:30:55.002Z,17.70
2019-01-19T02:31:54.991Z,19.90
2019-01-19T02:32:54.983Z,20.10
2019-01-19T02:33:55.018Z,19.50
2019-01-19T02:34:54.990Z,19.00
2019-01-19T02:35:54.951Z,18.50
2019-01-19T02:36:54.944Z,19.30
2019-01-19T02:37:54.938Z,20.70
2019-01-19T02:38:54.941Z,20.90
2019-01-19T02:39:54.914Z,20.10
2019-01-19T02:40:54.907Z,19.40
2019-01-19T02:41:54.898Z,20.80
2019-01-19T02:42:54.877Z,21.30
2019-01-19T02:43:54.903Z,20.00
2019-01-19T02:44:54.856Z,18.00
2019-01-19T02:45:54.843Z,19.40
2019-01-19T02:46:54.844Z,20.40
2019-01-19T02:47:54.820Z,19.20
2019-01-19T02:48:54.836Z,20.20
2019-01-19T02:49:54.801Z,18.70
2019-01-19T02:50:54.787Z,20.00
2019-01-19T02:51:54.791Z,20.20
2019-01-19T02:52:54.779Z,19.20
2019-01-19T02:53:54.759Z,18.20
2019-01-19T02:54:54.768Z,18.90
2019-01-19T02:55:54.735Z,20.50
2019-01-19T02:56:54.727Z,20.50
2019-01-19T02:57:54.718Z,19.00
2019-01-19T02:58:54.708Z,18.80
2019-01-19T02:59:54.753Z,17.80
2019-01-19T03:00:54.715Z,19.00
2019-01-19T03:01:54.674Z,17.90
2019-01-19T03:02:54.666Z,20.10
2019-01-19T03:03:54.673Z,18.20
2019-01-19T03:04:54.673Z,19.80
2019-01-19T03:05:56.244Z,16.90
2019-01-19T03:06:54.622Z,17.40
2019-01-19T03:07:54.651Z,17.00
2019-01-19T03:08:54.607Z,16.80
2019-01-19T03:09:54.618Z,22.10
2019-01-19T03:10:54.590Z,17.90
2019-01-19T03:11:54.574Z,17.20
2019-01-19T03:12:54.583Z,18.20
2019-01-19T03:13:54.560Z,16.10
2019-01-19T03:14:54.563Z,16.30
2019-01-19T03:15:54.544Z,16.50
2019-01-19T03:16:54.608Z,19.70
2019-01-19T03:17:54.520Z,17.80
2019-01-19T03:18:54.503Z,17.50
2019-01-19T03:19:54.530Z,16.40
2019-01-19T03:20:54.479Z,17.50
2019-01-19T03:21:54.475Z,14.50
2019-01-19T03:22:54.460Z,18.10
2019-01-19T03:23:54.466Z,19.80
2019-01-19T03:24:54.434Z,17.10
2019-01-19T03:25:54.451Z,20.30
2019-01-19T03:26:54.419Z,18.20
2019-01-19T03:27:54.405Z,16.70
2019-01-19T03:28:54.399Z,17.10
2019-01-19T03:29:54.389Z,17.20
2019-01-19T03:30:54.441Z,17.80
2019-01-19T03:31:54.369Z,16.20
2019-01-19T03:32:54.393Z,17.30
2019-01-19T03:33:54.355Z,15.20
2019-01-19T03:34:54.331Z,16.50
2019-01-19T03:35:54.344Z,19.50
2019-01-19T03:36:54.310Z,16.70
2019-01-19T03:39:22.704Z,15.00
2019-01-19T03:41:43.894Z,14.30
2019-01-19T03:42:54.894Z,15.80
2019-01-19T03:43:54.590Z,16.90
2019-01-19T03:44:43.851Z,18.50
2019-01-19T03:45:53.839Z,18.10
2019-01-19T03:46:43.828Z,16.00
2019-01-19T03:47:53.399Z,18.80
2019-01-19T03:48:51.345Z,15.10
2019-01-19T03:49:51.338Z,17.80
2019-01-19T03:50:55.414Z,14.80
2019-01-19T03:51:51.320Z,18.40
2019-01-19T03:52:51.315Z,17.40
2019-01-19T03:53:51.296Z,13.10
2019-01-19T03:54:51.301Z,15.70
2019-01-19T03:55:51.278Z,17.80
2019-01-19T03:56:54.671Z,18.50
2019-01-19T03:57:51.261Z,16.50
2019-01-19T03:58:51.243Z,16.90
2019-01-19T03:59:54.282Z,15.80
2019-01-19T04:00:53.506Z,16.10
2019-01-19T04:01:53.384Z,17.00
2019-01-19T04:02:53.078Z,15.90
2019-01-19T04:03:51.205Z,15.10
2019-01-19T04:04:52.470Z,16.90
2019-01-19T04:05:51.176Z,15.70
2019-01-19T04:06:43.646Z,15.00
2019-01-19T04:07:43.607Z,15.20
2019-01-19T04:08:43.619Z,14.40
2019-01-19T04:09:51.163Z,14.40
2019-01-19T04:10:43.584Z,14.70
2019-01-19T04:11:52.142Z,14.60
2019-01-19T04:12:51.097Z,16.10
2019-01-19T04:13:43.558Z,14.70
2019-01-19T04:14:43.533Z,14.60
2019-01-19T04:15:43.537Z,13.70
2019-01-19T04:18:01.319Z,11.50
2019-01-19T04:21:21.003Z,11.10
2019-01-19T04:23:31.250Z,15.50
2019-01-19T04:24:41.231Z,16.00
2019-01-19T04:28:10.125Z,14.10
2019-01-19T04:29:17.636Z,15.10
2019-01-19T04:30:10.070Z,15.10
2019-01-19T04:31:18.939Z,12.80
2019-01-19T04:32:18.625Z,14.00
2019-01-19T04:33:10.095Z,16.40
2019-01-19T04:34:10.032Z,14.50
2019-01-19T04:35:10.065Z,14.10
2019-01-19T04:36:10.070Z,12.80
2019-01-19T04:37:17.853Z,12.90
2019-01-19T04:39:26.196Z,15.20
2019-01-19T04:40:26.159Z,15.70
2019-01-19T04:41:26.173Z,12.60
2019-01-19T04:42:26.241Z,15.50
2019-01-19T04:43:26.146Z,16.40
2019-01-19T04:44:26.114Z,13.40
2019-01-19T04:45:26.157Z,12.10
2019-01-19T04:46:26.094Z,13.20
2019-01-19T04:47:26.084Z,12.10
2019-01-19T04:48:26.092Z,14.10
2019-01-19T04:49:26.062Z,12.00
2019-01-19T04:50:26.055Z,15.70
2019-01-19T04:51:26.051Z,15.00
2019-01-19T04:52:26.037Z,12.90
2019-01-19T04:53:26.056Z,15.20
2019-01-19T04:54:34.841Z,13.00
2019-01-19T04:55:26.006Z,12.20
2019-01-19T04:56:26.018Z,13.60
2019-01-19T04:57:34.543Z,14.80
2019-01-19T04:58:26.037Z,13.40
2019-01-19T04:59:34.855Z,15.00
2019-01-19T05:00:25.991Z,12.00
2019-01-19T05:01:25.981Z,12.40
2019-01-19T05:02:25.934Z,13.20
2019-01-19T05:03:25.969Z,12.50
2019-01-19T05:04:25.912Z,10.90
2019-01-19T05:05:25.897Z,14.10
2019-01-19T05:06:30.527Z,13.00
2019-01-19T05:07:25.906Z,12.70
2019-01-19T05:08:25.902Z,14.20
2019-01-19T05:09:25.863Z,12.80
2019-01-19T05:10:33.399Z,13.50
2019-01-19T05:11:33.391Z,12.40
2019-01-19T05:12:33.384Z,13.90
2019-01-19T05:13:34.704Z,11.90
2019-01-19T05:14:34.633Z,13.60
2019-01-19T05:15:25.793Z,12.40
2019-01-19T05:16:25.785Z,11.80
2019-01-19T05:17:25.821Z,11.10
2019-01-19T05:18:25.764Z,12.20
2019-01-19T05:19:25.776Z,13.00
2019-01-19T05:20:25.755Z,11.50
2019-01-19T05:21:25.739Z,11.00
2019-01-19T05:22:34.537Z,12.10
2019-01-19T05:23:33.260Z,10.90
2019-01-19T05:24:25.729Z,13.60
2019-01-19T05:25:25.686Z,13.70
2019-01-19T05:26:34.503Z,13.80
2019-01-19T05:27:25.668Z,14.80
2019-01-19T05:28:25.662Z,13.60
2019-01-19T05:29:25.692Z,12.90
2019-01-19T05:30:25.655Z,13.40
2019-01-19T05:31:25.625Z,12.10
2019-01-19T05:32:25.630Z,12.50
2019-01-19T05:33:33.160Z,12.00
2019-01-19T05:34:25.609Z,12.30
2019-01-19T05:35:25.610Z,10.50
2019-01-19T05:36:25.587Z,11.60
2019-01-19T05:37:25.611Z,12.70
2019-01-19T05:38:25.581Z,12.30
2019-01-19T05:39:25.539Z,12.90
2019-01-19T05:40:25.557Z,11.60
2019-01-19T05:41:25.521Z,11.40
2019-01-19T05:42:25.522Z,11.90
2019-01-19T05:43:25.506Z,13.70
2019-01-19T05:44:25.492Z,11.80
2019-01-19T05:45:25.501Z,12.50
2019-01-19T05:46:25.502Z,13.40
2019-01-19T05:47:25.468Z,12.00
2019-01-19T05:48:25.453Z,11.80
2019-01-19T05:49:25.455Z,12.70
2019-01-19T05:50:25.459Z,11.80
2019-01-19T05:51:25.434Z,13.60
2019-01-19T05:52:25.412Z,11.20
2019-01-19T05:53:32.962Z,11.80
2019-01-19T05:54:25.385Z,10.80
2019-01-19T05:55:25.396Z,15.60
2019-01-19T05:56:25.400Z,13.60
2019-01-19T05:57:25.365Z,11.70
2019-01-19T05:58:25.343Z,10.30
2019-01-19T05:59:25.338Z,12.90
2019-01-19T06:00:25.387Z,12.00
2019-01-19T06:01:32.857Z,11.60
2019-01-19T06:02:25.299Z,10.90
2019-01-19T06:03:25.297Z,11.00
2019-01-19T06:04:25.283Z,13.60
2019-01-19T06:05:32.838Z,10.90
2019-01-19T06:06:25.277Z,10.80
2019-01-19T06:07:25.249Z,12.00
2019-01-19T06:08:25.243Z,12.60
2019-01-19T06:09:25.258Z,12.80
2019-01-19T06:10:25.222Z,11.70
2019-01-19T06:11:25.295Z,13.60
2019-01-19T06:12:25.198Z,9.70
2019-01-19T06:13:25.222Z,10.30
2019-01-19T06:14:25.185Z,12.10
2019-01-19T06:15:25.179Z,14.60
2019-01-19T06:16:25.210Z,12.70
2019-01-19T06:17:25.148Z,10.80
2019-01-19T06:18:25.136Z,15.00
2019-01-19T06:19:25.132Z,11.20
2019-01-19T06:20:25.118Z,12.00
2019-01-19T06:21:25.126Z,11.40
2019-01-19T06:22:32.638Z,12.40
2019-01-19T06:23:25.077Z,13.10
2019-01-19T06:24:25.067Z,13.10
2019-01-19T06:25:25.079Z,10.80
2019-01-19T06:26:25.079Z,12.80
2019-01-19T06:27:25.043Z,12.50
2019-01-19T06:28:25.031Z,10.50
2019-01-19T06:29:25.023Z,10.80
2019-01-19T06:30:25.052Z,11.00
2019-01-19T06:31:24.999Z,11.10
2019-01-19T06:32:25.003Z,11.90
2019-01-19T06:33:24.975Z,12.40
2019-01-19T06:34:24.979Z,11.10
2019-01-19T06:35:24.955Z,11.20
2019-01-19T06:36:24.947Z,11.10
2019-01-19T06:37:24.955Z,10.50
2019-01-19T06:38:24.933Z,11.70
2019-01-19T06:39:24.918Z,11.90
2019-01-19T06:40:24.904Z,12.20
2019-01-19T06:41:24.919Z,14.50
2019-01-19T06:42:24.926Z,12.50
2019-01-19T06:43:24.883Z,11.70
2019-01-19T06:44:24.954Z,12.90
2019-01-19T06:45:24.945Z,11.00
2019-01-19T06:46:24.904Z,12.50
2019-01-19T06:47:24.861Z,11.90
2019-01-19T06:48:24.825Z,11.20
2019-01-19T06:49:24.813Z,12.50
2019-01-19T06:50:24.803Z,11.90
2019-01-19T06:51:24.817Z,12.80
2019-01-19T06:52:24.792Z,11.50
2019-01-19T06:53:33.623Z,11.30
2019-01-19T06:54:24.752Z,11.50
2019-01-19T06:55:24.748Z,13.10
2019-01-19T06:56:24.738Z,11.30
2019-01-19T06:57:24.727Z,10.70
2019-01-19T06:58:24.752Z,10.50
2019-01-19T06:59:24.702Z,9.10
2019-01-19T07:00:24.696Z,12.50
2019-01-19T07:01:24.685Z,10.90
2019-01-19T07:02:24.696Z,11.40
2019-01-19T07:03:24.724Z,10.80
2019-01-19T07:04:24.652Z,10.60
2019-01-19T07:05:24.683Z,11.60
2019-01-19T07:06:24.633Z,11.40
2019-01-19T07:07:24.673Z,10.40
2019-01-19T07:08:24.647Z,11.90
2019-01-19T07:09:24.629Z,10.20
2019-01-19T07:10:33.854Z,11.30
2019-01-19T07:11:24.604Z,11.80
2019-01-19T07:12:24.562Z,9.90
2019-01-19T07:13:24.577Z,11.50
2019-01-19T07:14:24.598Z,10.30
2019-01-19T07:15:24.531Z,11.30
2019-01-19T07:16:24.522Z,9.50
2019-01-19T07:17:24.517Z,9.00
2019-01-19T07:18:24.575Z,9.30
2019-01-19T07:19:24.522Z,11.00
2019-01-19T07:20:24.570Z,10.90
2019-01-19T07:21:24.485Z,11.80
2019-01-19T07:22:24.460Z,12.10
2019-01-19T07:23:24.472Z,12.60
2019-01-19T07:24:24.487Z,11.10
2019-01-19T07:25:24.426Z,10.10
2019-01-19T07:26:24.417Z,10.20
2019-01-19T07:27:24.414Z,11.80
2019-01-19T07:28:24.409Z,10.30
2019-01-19T07:29:24.415Z,10.00
2019-01-19T07:30:24.377Z,10.90
2019-01-19T07:31:24.366Z,11.50
2019-01-19T07:32:24.356Z,12.80
2019-01-19T07:33:24.357Z,10.20
2019-01-19T07:34:24.376Z,9.00
2019-01-19T07:35:24.325Z,13.70
2019-01-19T07:36:24.314Z,10.10
2019-01-19T07:37:24.316Z,10.00
2019-01-19T07:38:24.300Z,10.80
2019-01-19T07:39:24.351Z,10.60
2019-01-19T07:40:24.277Z,11.90
2019-01-19T07:41:24.260Z,9.50
2019-01-19T07:42:24.254Z,11.00
2019-01-19T07:43:24.243Z,11.50
2019-01-19T07:44:24.253Z,10.60
2019-01-19T07:45:31.820Z,10.50
2019-01-19T07:46:24.242Z,11.40
2019-01-19T07:47:24.247Z,8.50
2019-01-19T07:48:24.188Z,10.90
2019-01-19T07:49:24.206Z,10.80
2019-01-19T07:50:24.175Z,10.40
2019-01-19T07:51:25.672Z,9.40
2019-01-19T07:52:24.154Z,10.10
2019-01-19T07:53:24.134Z,9.70
2019-01-19T07:54:24.176Z,10.00
2019-01-19T07:55:24.138Z,10.30
2019-01-19T07:56:24.915Z,11.90
2019-01-19T07:57:31.061Z,8.70
2019-01-19T07:58:25.080Z,8.60
2019-01-19T07:59:24.079Z,8.80
2019-01-19T08:00:24.083Z,10.50
2019-01-19T08:01:24.066Z,13.00
2019-01-19T08:02:24.042Z,10.10
2019-01-19T08:03:24.034Z,10.70
2019-01-19T08:04:24.018Z,11.50
2019-01-19T08:05:24.058Z,11.10
2019-01-19T08:06:23.997Z,10.60
2019-01-19T08:07:23.993Z,8.40
2019-01-19T08:08:24.004Z,8.40
2019-01-19T08:09:23.971Z,9.50
2019-01-19T08:10:23.987Z,9.60
2019-01-19T08:11:23.952Z,9.50
2019-01-19T08:12:23.936Z,9.50
2019-01-19T08:13:23.976Z,8.70
2019-01-19T08:14:23.924Z,9.70
2019-01-19T08:15:23.947Z,10.90
2019-01-19T08:16:23.910Z,8.30
2019-01-19T08:17:23.913Z,8.70
2019-01-19T08:18:23.876Z,9.80
2019-01-19T08:19:23.899Z,8.50
2019-01-19T08:20:23.851Z,9.40
2019-01-19T08:21:23.864Z,10.30
2019-01-19T08:22:23.832Z,9.20
2019-01-19T08:23:23.825Z,11.00
2019-01-19T08:24:23.816Z,8.00
2019-01-19T08:25:23.836Z,8.20
2019-01-19T08:26:23.824Z,9.10
2019-01-19T08:27:23.813Z,7.90
2019-01-19T08:28:23.772Z,10.50
2019-01-19T08:29:23.761Z,8.70
2019-01-19T08:30:23.790Z,9.90
2019-01-19T08:31:23.767Z,6.80
2019-01-19T08:32:23.809Z,8.80
2019-01-19T08:33:23.762Z,9.90
2019-01-19T08:34:23.706Z,8.10
2019-01-19T08:35:23.743Z,9.10
2019-01-19T08:36:23.711Z,7.90
2019-01-19T08:37:24.509Z,10.70
2019-01-19T08:38:23.676Z,8.90
2019-01-19T08:39:23.680Z,9.10
2019-01-19T08:40:23.645Z,9.10
2019-01-19T08:41:23.655Z,6.70
2019-01-19T08:42:23.641Z,8.30
2019-01-19T08:43:23.617Z,8.80
2019-01-19T08:44:23.615Z,8.10
2019-01-19T08:45:23.594Z,7.90
2019-01-19T08:46:23.620Z,10.80
2019-01-19T08:47:23.995Z,8.00
2019-01-19T08:48:23.578Z,7.90
2019-01-19T08:49:23.572Z,7.30
2019-01-19T08:50:23.602Z,6.90
2019-01-19T08:51:23.532Z,8.80
2019-01-19T08:52:23.563Z,7.20
2019-01-19T08:53:23.515Z,8.00
2019-01-19T08:54:23.498Z,7.30
2019-01-19T08:55:23.496Z,8.50
2019-01-19T08:56:23.477Z,7.30
2019-01-19T08:57:23.535Z,7.80
2019-01-19T08:58:23.458Z,6.80
2019-01-19T08:59:23.614Z,7.80
2019-01-19T09:00:23.451Z,10.10
2019-01-19T09:01:23.429Z,9.70
2019-01-19T09:02:23.417Z,7.40
2019-01-19T09:03:23.421Z,11.80
2019-01-19T09:04:23.401Z,7.30
2019-01-19T09:05:23.384Z,7.70
2019-01-19T09:06:23.368Z,6.60
2019-01-19T09:07:23.359Z,8.00
2019-01-19T09:08:23.367Z,7.20
2019-01-19T09:09:23.543Z,6.70
2019-01-19T09:10:23.328Z,7.90
2019-01-19T09:11:23.318Z,7.10
2019-01-19T09:12:23.309Z,8.80
2019-01-19T09:13:23.322Z,7.50
2019-01-19T09:14:23.285Z,6.80
2019-01-19T09:15:23.287Z,7.50
2019-01-19T09:16:23.266Z,8.30
2019-01-19T09:17:23.257Z,8.10
2019-01-19T09:18:23.266Z,10.10
2019-01-19T09:19:23.238Z,7.30
2019-01-19T09:20:23.223Z,7.10
2019-01-19T09:21:23.249Z,8.50
2019-01-19T09:22:23.205Z,6.80
2019-01-19T09:23:23.213Z,7.60
2019-01-19T09:24:23.181Z,10.30
2019-01-19T09:25:30.757Z,8.40
2019-01-19T09:26:23.166Z,8.40
2019-01-19T09:27:23.152Z,7.50
2019-01-19T09:28:23.142Z,9.70
2019-01-19T09:29:23.150Z,11.50
2019-01-19T09:30:23.244Z,7.70
2019-01-19T09:31:23.115Z,8.70
2019-01-19T09:32:23.130Z,9.80
2019-01-19T09:33:23.095Z,7.20
2019-01-19T09:34:23.112Z,7.30
2019-01-19T09:35:23.078Z,9.10
2019-01-19T09:36:23.061Z,7.30
2019-01-19T09:37:23.044Z,8.70
2019-01-19T09:38:23.043Z,7.20
2019-01-19T09:39:23.053Z,7.60
2019-01-19T09:40:23.024Z,10.20
2019-01-19T09:41:23.014Z,8.30
2019-01-19T09:42:22.993Z,7.90
2019-01-19T09:43:22.979Z,7.90
2019-01-19T09:44:23.013Z,9.70
2019-01-19T09:45:22.993Z,10.60
2019-01-19T09:46:22.958Z,7.50
2019-01-19T09:47:22.940Z,9.40
2019-01-19T09:48:22.930Z,7.20
2019-01-19T09:49:22.936Z,9.40
2019-01-19T09:50:22.914Z,8.30
2019-01-19T09:51:22.898Z,9.60
2019-01-19T09:52:22.895Z,9.40
2019-01-19T09:53:22.875Z,8.20
2019-01-19T09:54:22.883Z,11.20
2019-01-19T09:55:22.856Z,8.40
2019-01-19T09:56:22.845Z,8.60
2019-01-19T09:57:22.833Z,7.90
2019-01-19T09:58:22.850Z,7.70
2019-01-19T09:59:22.878Z,9.50
2019-01-19T10:00:22.802Z,8.80
2019-01-19T10:01:22.793Z,8.00
2019-01-19T10:02:22.790Z,8.00
2019-01-19T10:03:22.769Z,8.30
2019-01-19T10:04:22.780Z,9.70
2019-01-19T10:05:22.776Z,7.30
2019-01-19T10:06:22.739Z,9.80
2019-01-19T10:07:22.727Z,9.40
2019-01-19T10:08:22.722Z,8.70
2019-01-19T10:09:22.710Z,7.70
2019-01-19T10:10:22.729Z,8.30
2019-01-19T10:11:22.687Z,7.70
2019-01-19T10:12:22.676Z,6.90
2019-01-19T10:13:22.683Z,6.50
2019-01-19T10:14:22.656Z,7.80
2019-01-19T10:15:22.672Z,8.50
2019-01-19T10:16:22.647Z,7.90
2019-01-19T10:17:22.690Z,8.20
2019-01-19T10:18:22.614Z,8.60
2019-01-19T10:19:22.632Z,8.10
2019-01-19T10:20:22.683Z,7.10
2019-01-19T10:21:22.594Z,7.80
2019-01-19T10:22:22.656Z,8.80
2019-01-19T10:23:22.627Z,7.70
2019-01-19T10:24:22.566Z,6.10
2019-01-19T10:25:22.581Z,6.60
2019-01-19T10:26:22.604Z,7.00
2019-01-19T10:27:22.518Z,11.30
2019-01-19T10:28:22.507Z,7.40
2019-01-19T10:29:22.495Z,7.10
2019-01-19T10:30:22.509Z,8.10
2019-01-19T10:31:22.489Z,8.10
2019-01-19T10:32:22.477Z,7.70
2019-01-19T10:33:22.500Z,7.70
2019-01-19T10:34:22.456Z,6.80
2019-01-19T10:35:22.430Z,8.40
2019-01-19T10:36:22.481Z,6.70
2019-01-19T10:37:22.413Z,6.00
2019-01-19T10:38:22.401Z,8.80
2019-01-19T10:39:22.409Z,12.50
2019-01-19T10:40:22.379Z,9.50
2019-01-19T10:41:22.388Z,6.60
2019-01-19T10:42:22.355Z,8.20
2019-01-19T10:43:22.356Z,10.00
2019-01-19T10:44:22.361Z,6.40
2019-01-19T10:45:22.422Z,7.30
2019-01-19T10:46:22.375Z,8.30
2019-01-19T10:47:22.309Z,7.20
2019-01-19T10:48:22.319Z,8.70
2019-01-19T10:49:22.328Z,9.30
2019-01-19T10:50:22.294Z,6.90
2019-01-19T10:51:22.350Z,9.70
2019-01-19T10:52:22.281Z,10.50
2019-01-19T10:53:22.242Z,8.70
2019-01-19T10:54:22.405Z,10.80
2019-01-19T10:55:22.586Z,8.40
2019-01-19T10:56:22.579Z,8.00
2019-01-19T10:57:22.249Z,7.30
2019-01-19T10:58:22.195Z,9.30
2019-01-19T10:59:22.228Z,8.30
2019-01-19T11:00:22.171Z,8.00
2019-01-19T11:01:22.159Z,7.30
2019-01-19T11:02:22.215Z,8.30
2019-01-19T11:03:22.140Z,6.50
2019-01-19T11:04:22.130Z,6.40
2019-01-19T11:05:22.117Z,10.30
2019-01-19T11:06:22.149Z,8.30
2019-01-19T11:07:22.165Z,7.70
2019-01-19T11:08:22.092Z,6.50
2019-01-19T11:09:22.078Z,7.10
2019-01-19T11:10:22.080Z,6.30
2019-01-19T11:11:22.112Z,8.50
2019-01-19T11:12:22.063Z,8.20
2019-01-19T11:13:22.098Z,8.30
2019-01-19T11:14:22.022Z,6.00
2019-01-19T11:15:22.014Z,7.50
2019-01-19T11:16:22.013Z,7.00
2019-01-19T11:17:22.008Z,5.70
2019-01-19T11:18:21.988Z,8.00
2019-01-19T11:19:21.977Z,10.10
2019-01-19T11:20:21.959Z,8.20
2019-01-19T11:21:21.948Z,6.40
2019-01-19T11:22:21.958Z,7.80
2019-01-19T11:23:21.962Z,7.50
2019-01-19T11:24:21.935Z,6.60
2019-01-19T11:25:21.904Z,6.60
2019-01-19T11:26:21.905Z,7.80
2019-01-19T11:27:29.594Z,6.80
2019-01-19T11:28:21.953Z,5.50
2019-01-19T11:29:21.871Z,7.40
2019-01-19T11:30:21.853Z,7.60
2019-01-19T11:31:21.925Z,6.50
2019-01-19T11:32:21.854Z,6.20
2019-01-19T11:33:21.822Z,6.40
2019-01-19T11:34:21.826Z,4.90
2019-01-19T11:35:21.801Z,6.40
2019-01-19T11:36:21.788Z,6.90
2019-01-19T11:37:21.803Z,7.30
2019-01-19T11:38:21.861Z,6.00
2019-01-19T11:39:21.767Z,7.80
2019-01-19T11:40:21.783Z,7.80
2019-01-19T11:41:21.792Z,5.50
2019-01-19T11:42:21.755Z,7.70
2019-01-19T11:43:21.718Z,6.30
2019-01-19T11:44:21.710Z,5.60
2019-01-19T11:45:21.708Z,5.20
2019-01-19T11:46:21.686Z,7.20
2019-01-19T11:47:21.699Z,7.40
2019-01-19T11:48:21.669Z,6.90
2019-01-19T11:49:21.702Z,6.90
2019-01-19T11:50:22.752Z,7.50
2019-01-19T11:51:21.636Z,5.70
2019-01-19T11:52:21.640Z,5.40
2019-01-19T11:53:21.617Z,5.50
2019-01-19T11:54:21.610Z,5.40
2019-01-19T11:55:21.601Z,6.20
2019-01-19T11:56:21.582Z,7.10
2019-01-19T11:57:21.633Z,7.30
2019-01-19T11:58:21.559Z,5.90
2019-01-19T11:59:21.548Z,4.90
2019-01-19T12:00:21.548Z,5.60
2019-01-19T12:01:21.574Z,12.40
2019-01-19T12:02:21.543Z,5.10
2019-01-19T12:03:21.507Z,6.00
2019-01-19T12:04:21.497Z,7.10
2019-01-19T12:05:21.489Z,14.30
2019-01-19T12:06:21.489Z,7.60
2019-01-19T12:07:21.490Z,5.10
2019-01-19T12:08:21.476Z,6.10
2019-01-19T12:09:21.472Z,5.50
2019-01-19T12:10:21.440Z,8.40
2019-01-19T12:11:21.428Z,7.20
2019-01-19T12:12:21.436Z,5.60
2019-01-19T12:13:21.403Z,4.70
2019-01-19T12:14:21.394Z,5.80
2019-01-19T12:15:21.381Z,5.70
2019-01-19T12:16:21.374Z,5.20
2019-01-19T12:17:21.383Z,6.10
2019-01-19T12:18:21.371Z,6.20
2019-01-19T12:19:21.345Z,7.60
2019-01-19T12:20:21.330Z,5.20
2019-01-19T12:21:21.320Z,5.40
2019-01-19T12:22:21.311Z,6.60
2019-01-19T12:23:21.327Z,6.00
2019-01-19T12:24:21.290Z,6.90
2019-01-19T12:25:21.279Z,6.80
2019-01-19T12:26:21.265Z,6.00
2019-01-19T12:27:21.257Z,5.80
2019-01-19T12:28:21.260Z,5.50
2019-01-19T12:29:21.242Z,6.00
2019-01-19T12:30:21.229Z,6.80
2019-01-19T12:31:21.218Z,6.50
2019-01-19T12:32:21.202Z,5.70
2019-01-19T12:33:21.218Z,5.70
2019-01-19T12:34:21.188Z,4.60
2019-01-19T12:35:21.191Z,7.60
2019-01-19T12:36:21.182Z,5.90
2019-01-19T12:37:21.149Z,6.70
2019-01-19T12:38:26.756Z,9.80
2019-01-19T12:39:22.126Z,6.80
2019-01-19T12:40:21.121Z,5.60
2019-01-19T12:41:21.120Z,8.00
2019-01-19T12:42:21.098Z,4.90
2019-01-19T12:43:21.132Z,6.90
2019-01-19T12:44:21.073Z,4.80
2019-01-19T12:45:21.066Z,5.10
2019-01-19T12:46:21.051Z,5.30
2019-01-19T12:47:21.068Z,5.00
2019-01-19T12:48:21.032Z,6.90
2019-01-19T12:49:21.047Z,6.80
2019-01-19T12:50:21.011Z,5.00
2019-01-19T12:51:21.005Z,5.40
2019-01-19T12:52:21.002Z,4.30
2019-01-19T12:53:21.001Z,4.70
2019-01-19T12:54:20.997Z,5.40
2019-01-19T12:55:20.956Z,5.70
2019-01-19T12:56:20.949Z,7.00
2019-01-19T12:57:20.940Z,4.90
2019-01-19T12:58:20.929Z,7.80
2019-01-19T12:59:20.939Z,5.10
2019-01-19T13:00:20.913Z,4.60
2019-01-19T13:01:20.944Z,6.20
2019-01-19T13:02:20.891Z,4.60
2019-01-19T13:03:20.872Z,4.80
2019-01-19T13:04:20.884Z,7.90
2019-01-19T13:05:20.857Z,5.30
2019-01-19T13:06:20.845Z,7.10
2019-01-19T13:07:20.838Z,5.50
2019-01-19T13:08:20.820Z,5.10
2019-01-19T13:09:20.824Z,4.90
2019-01-19T13:10:20.808Z,5.20
2019-01-19T13:11:20.790Z,5.60
2019-01-19T13:12:20.786Z,5.40
2019-01-19T13:13:20.807Z,4.70
2019-01-19T13:14:20.781Z,5.80